Time;durP1;ratioP1;P1;durP2;ratioP2;P2;SDS_P1;SDS_P2;PMS_P1;PMS_P2;Temp;Humidity;BMP_temperature;BMP_pressure;BME280_temperature;BME280_humidity;BME280_pressure;Samples;Min_cycle;Max_cycle;Signal;HPM_P1;HPM_P2
2023/05/26 00:00:26;;;;;;;9.47;7.17;;;;;;;;;;5137256;27;20523;-78
2023/05/26 00:02:57;;;;;;;6.53;5.60;;;;;;;;;;5139851;27;20554;-76
2023/05/26 00:05:27;;;;;;;7.80;6.43;;;;;;;;;;5140816;27;20486;-77
2023/05/26 00:07:57;;;;;;;7.67;6.60;;;;;;;;;;5139458;27;20515;-76
2023/05/26 00:10:26;;;;;;;8.50;6.47;;;;;;;;;;5138929;27;20534;-76
2023/05/26 00:12:53;;;;;;;7.30;6.30;;;;;;;;;;5137018;27;20492;-77
2023/05/26 00:15:21;;;;;;;7.37;6.50;;;;;;;;;;5136567;27;20452;-77
2023/05/26 00:17:50;;;;;;;14.33;6.40;;;;;;;;;;5136300;27;20519;-77
2023/05/26 00:20:18;;;;;;;7.20;6.50;;;;;;;;;;5137318;27;20538;-77
2023/05/26 00:22:47;;;;;;;6.93;6.17;;;;;;;;;;5135387;27;20487;-77
2023/05/26 00:25:15;;;;;;;6.83;6.13;;;;;;;;;;5132322;27;20457;-77
2023/05/26 00:27:42;;;;;;;6.50;5.90;;;;;;;;;;5135895;27;20457;-77
2023/05/26 00:30:11;;;;;;;7.53;6.80;;;;;;;;;;5136190;27;20526;-77
2023/05/26 00:32:39;;;;;;;6.93;5.93;;;;;;;;;;5135728;27;20480;-76
2023/05/26 00:35:07;;;;;;;7.43;6.53;;;;;;;;;;5136161;27;20487;-77
2023/05/26 00:37:40;;;;;;;7.53;6.70;;;;;;;;;;5136565;27;20442;-76
2023/05/26 00:40:10;;;;;;;8.37;7.00;;;;;;;;;;5136395;27;20553;-75
2023/05/26 00:42:38;;;;;;;8.90;6.43;;;;;;;;;;5136093;27;20448;-75
2023/05/26 00:45:06;;;;;;;7.60;5.97;;;;;;;;;;5136233;27;20952;-76
2023/05/26 00:47:34;;;;;;;6.33;5.73;;;;;;;;;;5136503;27;20442;-76
2023/05/26 00:50:04;;;;;;;9.73;7.00;;;;;;;;;;5136561;27;20465;-75
2023/05/26 00:52:32;;;;;;;6.50;5.90;;;;;;;;;;5136289;27;20540;-75
2023/05/26 00:55:03;;;;;;;7.63;6.30;;;;;;;;;;5137314;27;20445;-77
2023/05/26 00:57:33;;;;;;;9.80;6.90;;;;;;;;;;5137823;27;20576;-77
2023/05/26 01:00:01;;;;;;;6.83;6.23;;;;;;;;;;5138556;27;20442;-76
2023/05/26 01:02:29;;;;;;;8.50;6.67;;;;;;;;;;5138281;27;20442;-77
2023/05/26 01:04:57;;;;;;;7.20;6.50;;;;;;;;;;5138621;27;20933;-76
2023/05/26 01:07:25;;;;;;;7.40;6.67;;;;;;;;;;5137196;27;20457;-76
2023/05/26 01:09:53;;;;;;;7.53;6.40;;;;;;;;;;5138243;27;20457;-77
2023/05/26 01:12:30;;;;;;;6.93;6.30;;;;;;;;;;5140238;27;21047;-75
2023/05/26 01:15:02;;;;;;;7.23;6.50;;;;;;;;;;5142799;27;20464;-77
2023/05/26 01:17:32;;;;;;;7.67;6.70;;;;;;;;;;5143742;27;20835;-76
2023/05/26 01:20:17;;;;;;;6.23;5.57;;;;;;;;;;5143157;27;20466;-77
2023/05/26 01:23:09;;;;;;;8.23;6.40;;;;;;;;;;5126247;27;20537;-75
2023/05/26 01:25:46;;;;;;;9.37;6.90;;;;;;;;;;5110156;27;20446;-76
2023/05/26 01:28:21;;;;;;;7.73;6.87;;;;;;;;;;5134010;27;20463;-76
2023/05/26 01:30:50;;;;;;;8.13;6.77;;;;;;;;;;5133717;27;20526;-76
2023/05/26 01:33:20;;;;;;;9.30;6.97;;;;;;;;;;5133736;27;20477;-77
2023/05/26 01:35:48;;;;;;;7.30;6.63;;;;;;;;;;5133784;27;20552;-78
2023/05/26 01:38:16;;;;;;;8.07;7.13;;;;;;;;;;5133838;27;20509;-76
2023/05/26 01:40:45;;;;;;;9.20;7.00;;;;;;;;;;5133764;27;20551;-78
2023/05/26 01:43:15;;;;;;;7.63;6.77;;;;;;;;;;5133879;27;20448;-76
2023/05/26 01:45:47;;;;;;;7.40;6.70;;;;;;;;;;5134266;27;20430;-76
2023/05/26 01:48:17;;;;;;;8.77;6.57;;;;;;;;;;5134687;27;20454;-75
2023/05/26 01:50:47;;;;;;;7.57;6.77;;;;;;;;;;5134347;27;20517;-76
2023/05/26 01:53:24;;;;;;;8.63;7.30;;;;;;;;;;5134272;27;20478;-77
2023/05/26 01:56:21;;;;;;;7.60;7.00;;;;;;;;;;5152742;27;20498;-74
2023/05/26 01:58:50;;;;;;;9.27;6.73;;;;;;;;;;5141229;27;20445;-75
2023/05/26 02:01:19;;;;;;;7.77;6.33;;;;;;;;;;5155653;27;20454;-76
2023/05/26 02:03:49;;;;;;;7.67;6.87;;;;;;;;;;5155535;27;20427;-75
2023/05/26 02:06:17;;;;;;;8.20;7.00;;;;;;;;;;5157897;27;20442;-75
2023/05/26 02:08:50;;;;;;;8.90;7.77;;;;;;;;;;5157540;27;20430;-76
2023/05/26 02:11:33;;;;;;;10.33;7.10;;;;;;;;;;5146373;27;20487;-76
2023/05/26 02:14:05;;;;;;;8.70;6.80;;;;;;;;;;5137770;27;20442;-77
2023/05/26 02:16:37;;;;;;;8.13;7.43;;;;;;;;;;5137219;27;20449;-77
2023/05/26 02:19:07;;;;;;;10.17;7.00;;;;;;;;;;5134162;27;20435;-77
2023/05/26 02:21:38;;;;;;;8.60;7.70;;;;;;;;;;5119768;28;20475;-76
2023/05/26 02:24:09;;;;;;;10.83;7.20;;;;;;;;;;5122620;28;20455;-77
2023/05/26 02:26:37;;;;;;;8.17;6.80;;;;;;;;;;5124946;28;20486;-77
2023/05/26 02:29:07;;;;;;;7.43;6.57;;;;;;;;;;5120570;28;20447;-77
2023/05/26 02:31:37;;;;;;;7.80;6.97;;;;;;;;;;5118126;27;20849;-76
2023/05/26 02:34:04;;;;;;;7.83;7.03;;;;;;;;;;5117724;28;20474;-77
2023/05/26 02:36:36;;;;;;;7.97;7.17;;;;;;;;;;5117143;28;20969;-76
2023/05/26 02:39:08;;;;;;;8.10;7.33;;;;;;;;;;5115128;28;20523;-77
2023/05/26 02:41:39;;;;;;;9.40;7.33;;;;;;;;;;5115284;28;20527;-77
2023/05/26 02:44:06;;;;;;;12.20;7.67;;;;;;;;;;5114441;28;20450;-76
2023/05/26 02:46:34;;;;;;;10.00;8.10;;;;;;;;;;5113635;28;20423;-77
2023/05/26 02:49:03;;;;;;;7.80;7.10;;;;;;;;;;5113184;28;20438;-76
2023/05/26 02:51:33;;;;;;;9.03;7.43;;;;;;;;;;5114456;28;20534;-77
2023/05/26 02:54:04;;;;;;;8.93;7.20;;;;;;;;;;5114018;28;20487;-77
2023/05/26 02:56:32;;;;;;;9.70;7.27;;;;;;;;;;5122320;27;20442;-76
2023/05/26 02:59:00;;;;;;;9.67;8.00;;;;;;;;;;5135866;27;20449;-76
2023/05/26 03:01:39;;;;;;;8.87;7.67;;;;;;;;;;5133930;27;20470;-76
2023/05/26 03:04:09;;;;;;;7.90;7.20;;;;;;;;;;5135425;27;20454;-76
2023/05/26 03:06:37;;;;;;;8.70;7.07;;;;;;;;;;5134086;27;20450;-76
2023/05/26 03:09:05;;;;;;;8.17;7.13;;;;;;;;;;5134274;27;20970;-77
2023/05/26 03:11:33;;;;;;;7.87;7.07;;;;;;;;;;5134082;27;20537;-77
2023/05/26 03:14:01;;;;;;;8.23;7.43;;;;;;;;;;5136222;27;20492;-77
2023/05/26 03:16:29;;;;;;;7.83;7.10;;;;;;;;;;5135718;27;20790;-76
2023/05/26 03:18:57;;;;;;;7.27;6.57;;;;;;;;;;5136215;27;20446;-78
2023/05/26 03:21:30;;;;;;;8.63;6.70;;;;;;;;;;5137097;27;20633;-77
2023/05/26 03:24:01;;;;;;;11.70;8.10;;;;;;;;;;5135602;27;20446;-77
2023/05/26 03:26:29;;;;;;;8.33;7.50;;;;;;;;;;5135156;27;20450;-76
2023/05/26 03:28:59;;;;;;;8.23;7.43;;;;;;;;;;5135756;27;20549;-76
2023/05/26 03:31:30;;;;;;;7.77;6.97;;;;;;;;;;5136019;27;20468;-76
2023/05/26 03:33:58;;;;;;;9.90;8.27;;;;;;;;;;5137446;27;20531;-76
2023/05/26 03:36:26;;;;;;;8.73;7.20;;;;;;;;;;5138220;27;20476;-76
2023/05/26 03:38:56;;;;;;;9.17;7.53;;;;;;;;;;5137710;27;20449;-78
2023/05/26 03:41:24;;;;;;;8.90;7.43;;;;;;;;;;5137496;27;20454;-77
2023/05/26 03:43:52;;;;;;;11.07;7.50;;;;;;;;;;5137170;27;20453;-76
2023/05/26 03:46:22;;;;;;;7.93;7.17;;;;;;;;;;5139131;27;20474;-78
2023/05/26 03:48:51;;;;;;;9.17;8.33;;;;;;;;;;5141438;27;20499;-76
2023/05/26 03:51:19;;;;;;;8.50;7.10;;;;;;;;;;5142994;27;20985;-76
2023/05/26 03:53:47;;;;;;;8.13;7.40;;;;;;;;;;5143301;27;20478;-76
2023/05/26 03:56:16;;;;;;;9.83;7.43;;;;;;;;;;5144409;27;20465;-76
2023/05/26 03:58:46;;;;;;;8.33;7.57;;;;;;;;;;5146184;27;20510;-76
2023/05/26 04:01:15;;;;;;;12.07;8.20;;;;;;;;;;5147284;27;20466;-77
2023/05/26 04:03:52;;;;;;;10.43;8.63;;;;;;;;;;5146909;27;20446;-76
2023/05/26 04:06:22;;;;;;;10.53;8.00;;;;;;;;;;5145454;27;20453;-76
2023/05/26 04:08:53;;;;;;;8.57;7.70;;;;;;;;;;5144808;27;20446;-77
2023/05/26 04:11:23;;;;;;;11.77;8.07;;;;;;;;;;5143386;27;20542;-77
2023/05/26 04:14:00;;;;;;;10.03;8.10;;;;;;;;;;5143997;27;20473;-76
2023/05/26 04:16:30;;;;;;;9.27;7.77;;;;;;;;;;5144808;27;20470;-76
2023/05/26 04:19:03;;;;;;;8.87;7.97;;;;;;;;;;5144032;27;20442;-76
2023/05/26 04:21:37;;;;;;;8.63;7.83;;;;;;;;;;5143351;28;20474;-78
2023/05/26 04:24:05;;;;;;;8.97;8.13;;;;;;;;;;5146428;28;20462;-78
2023/05/26 04:26:37;;;;;;;11.07;9.40;;;;;;;;;;5145217;27;20446;-76
2023/05/26 04:29:06;;;;;;;11.63;9.07;;;;;;;;;;5142349;27;20467;-77
2023/05/26 04:31:40;;;;;;;11.13;9.80;;;;;;;;;;5143408;27;20507;-76
2023/05/26 04:34:09;;;;;;;13.20;9.00;;;;;;;;;;5141516;27;20522;-76
2023/05/26 04:36:38;;;;;;;14.40;10.20;;;;;;;;;;5141181;27;20521;-77
2023/05/26 04:39:07;;;;;;;10.13;9.23;;;;;;;;;;5139746;27;20457;-79
2023/05/26 04:41:36;;;;;;;11.20;9.20;;;;;;;;;;5138642;28;20456;-77
2023/05/26 04:44:04;;;;;;;12.40;9.47;;;;;;;;;;5138778;27;20442;-77
2023/05/26 04:46:32;;;;;;;11.53;8.87;;;;;;;;;;5138912;27;20434;-77
2023/05/26 04:49:00;;;;;;;11.43;9.00;;;;;;;;;;5142572;27;20473;-78
2023/05/26 04:51:28;;;;;;;12.30;9.70;;;;;;;;;;5146188;27;20450;-77
2023/05/26 04:53:56;;;;;;;10.50;8.87;;;;;;;;;;5146738;27;20469;-79
2023/05/26 04:56:23;;;;;;;9.60;8.67;;;;;;;;;;5146623;27;20474;-78
2023/05/26 04:58:52;;;;;;;10.03;8.80;;;;;;;;;;5148803;27;20502;-78
2023/05/26 05:01:20;;;;;;;10.43;9.03;;;;;;;;;;5146802;27;20460;-77
2023/05/26 05:03:47;;;;;;;11.40;9.30;;;;;;;;;;5151052;27;20431;-77
2023/05/26 05:06:14;;;;;;;12.83;9.90;;;;;;;;;;5154293;27;20455;-76
2023/05/26 05:08:42;;;;;;;11.13;8.83;;;;;;;;;;5152311;27;20996;-76
2023/05/26 05:11:11;;;;;;;11.70;9.10;;;;;;;;;;5150082;27;20476;-75
2023/05/26 05:13:39;;;;;;;10.47;8.90;;;;;;;;;;5147901;27;20495;-79
2023/05/26 05:16:08;;;;;;;11.27;9.50;;;;;;;;;;5147280;27;20454;-78
2023/05/26 05:18:35;;;;;;;9.50;8.50;;;;;;;;;;5150574;27;20430;-76
2023/05/26 05:21:02;;;;;;;11.33;9.53;;;;;;;;;;5149680;27;20860;-76
2023/05/26 05:23:34;;;;;;;10.73;9.10;;;;;;;;;;5144760;27;20968;-75
2023/05/26 05:26:01;;;;;;;9.97;8.97;;;;;;;;;;5144769;27;20498;-76
2023/05/26 05:28:32;;;;;;;15.17;9.50;;;;;;;;;;5141257;27;20437;-77
2023/05/26 05:31:00;;;;;;;13.00;9.63;;;;;;;;;;5141925;27;20480;-78
2023/05/26 05:33:29;;;;;;;9.87;8.90;;;;;;;;;;5140832;27;20473;-78
2023/05/26 05:35:57;;;;;;;11.77;10.40;;;;;;;;;;5140248;27;20452;-78
2023/05/26 05:38:25;;;;;;;10.30;9.30;;;;;;;;;;5140006;27;20866;-78
2023/05/26 05:40:53;;;;;;;12.90;9.53;;;;;;;;;;5139942;27;20553;-78
2023/05/26 05:43:24;;;;;;;11.30;9.10;;;;;;;;;;5139175;27;20441;-77
2023/05/26 05:45:51;;;;;;;11.50;9.40;;;;;;;;;;5138367;27;20450;-77
2023/05/26 05:48:19;;;;;;;13.40;9.40;;;;;;;;;;5137992;27;20446;-77
2023/05/26 05:50:49;;;;;;;10.13;9.13;;;;;;;;;;5140412;27;20470;-77
2023/05/26 05:53:18;;;;;;;15.10;10.50;;;;;;;;;;5137838;27;20466;-77
2023/05/26 05:55:47;;;;;;;10.80;9.67;;;;;;;;;;5136634;27;20449;-77
2023/05/26 05:58:16;;;;;;;16.30;9.30;;;;;;;;;;5136077;27;20446;-78
2023/05/26 06:00:44;;;;;;;10.40;9.00;;;;;;;;;;5135975;27;20497;-77
2023/05/26 06:03:11;;;;;;;9.57;8.67;;;;;;;;;;5136945;27;20451;-78
2023/05/26 06:05:40;;;;;;;11.10;9.40;;;;;;;;;;5135856;27;20461;-78
2023/05/26 06:08:09;;;;;;;13.13;10.00;;;;;;;;;;5134956;27;20450;-77
2023/05/26 06:10:36;;;;;;;11.07;8.80;;;;;;;;;;5135027;27;20454;-76
2023/05/26 06:13:03;;;;;;;11.83;9.50;;;;;;;;;;5134887;27;20892;-76
2023/05/26 06:15:31;;;;;;;11.93;9.90;;;;;;;;;;5133664;27;20422;-77
2023/05/26 06:17:58;;;;;;;10.60;9.47;;;;;;;;;;5133576;27;20960;-76
2023/05/26 06:20:26;;;;;;;11.13;10.03;;;;;;;;;;5118897;27;20566;-77
2023/05/26 06:22:56;;;;;;;9.90;8.87;;;;;;;;;;5112357;28;20455;-76
2023/05/26 06:25:25;;;;;;;10.60;9.37;;;;;;;;;;5112714;28;20445;-78
2023/05/26 06:27:53;;;;;;;11.07;9.10;;;;;;;;;;5112473;28;20492;-77
2023/05/26 06:30:21;;;;;;;12.20;9.20;;;;;;;;;;5112652;28;21019;-76
2023/05/26 06:32:48;;;;;;;13.13;10.07;;;;;;;;;;5112404;28;20446;-77
2023/05/26 06:35:16;;;;;;;10.80;8.87;;;;;;;;;;5113532;28;20569;-77
2023/05/26 06:37:44;;;;;;;12.70;9.03;;;;;;;;;;5115530;28;20518;-75
2023/05/26 06:40:12;;;;;;;12.43;9.10;;;;;;;;;;5115874;28;20479;-78
2023/05/26 06:42:41;;;;;;;14.30;11.20;;;;;;;;;;5116749;28;20435;-76
2023/05/26 06:45:09;;;;;;;12.73;9.50;;;;;;;;;;5115675;28;20443;-77
2023/05/26 06:47:36;;;;;;;10.10;9.00;;;;;;;;;;5115737;28;20431;-77
2023/05/26 06:50:04;;;;;;;10.00;8.77;;;;;;;;;;5132784;27;20477;-79
2023/05/26 06:52:32;;;;;;;11.50;10.03;;;;;;;;;;5137135;27;20514;-75
2023/05/26 06:54:59;;;;;;;11.83;9.60;;;;;;;;;;5136746;27;20462;-75
2023/05/26 06:57:28;;;;;;;11.97;9.13;;;;;;;;;;5135253;27;20973;-77
2023/05/26 06:59:57;;;;;;;12.70;10.83;;;;;;;;;;5138252;27;20474;-75
2023/05/26 07:02:25;;;;;;;10.83;9.73;;;;;;;;;;5137952;27;20446;-77
2023/05/26 07:04:53;;;;;;;10.13;9.23;;;;;;;;;;5136561;27;20972;-77
2023/05/26 07:07:20;;;;;;;11.67;9.20;;;;;;;;;;5137318;27;20477;-77
2023/05/26 07:09:48;;;;;;;13.07;10.00;;;;;;;;;;5136923;27;20511;-78
2023/05/26 07:12:16;;;;;;;12.60;9.47;;;;;;;;;;5138460;27;20464;-77
2023/05/26 07:14:46;;;;;;;15.50;9.13;;;;;;;;;;5137094;27;20513;-76
2023/05/26 07:17:16;;;;;;;11.73;8.70;;;;;;;;;;5138221;27;20880;-76
2023/05/26 07:19:43;;;;;;;10.07;9.17;;;;;;;;;;5129792;27;21129;-77
2023/05/26 07:22:11;;;;;;;10.70;9.70;;;;;;;;;;5134010;27;20482;-76
2023/05/26 07:24:39;;;;;;;10.23;9.23;;;;;;;;;;5135289;27;20434;-76
2023/05/26 07:27:07;;;;;;;9.90;8.97;;;;;;;;;;5135421;27;20426;-77
2023/05/26 07:29:35;;;;;;;12.40;9.60;;;;;;;;;;5134316;27;21134;-74
2023/05/26 07:32:03;;;;;;;11.60;9.17;;;;;;;;;;5133696;27;20454;-75
2023/05/26 07:34:35;;;;;;;11.73;9.70;;;;;;;;;;5133673;27;20631;-77
2023/05/26 07:37:03;;;;;;;13.40;9.70;;;;;;;;;;5135604;27;20430;-77
2023/05/26 07:39:31;;;;;;;11.07;9.80;;;;;;;;;;5134708;27;20448;-76
2023/05/26 07:41:58;;;;;;;11.97;9.23;;;;;;;;;;5134564;27;20451;-77
2023/05/26 07:44:26;;;;;;;14.17;9.60;;;;;;;;;;5132336;27;20538;-77
2023/05/26 07:46:54;;;;;;;13.60;10.50;;;;;;;;;;5132513;27;20453;-77
2023/05/26 07:49:21;;;;;;;13.30;9.50;;;;;;;;;;5132460;27;20511;-81
2023/05/26 07:51:51;;;;;;;10.80;9.33;;;;;;;;;;5132144;27;20806;-77
2023/05/26 07:54:18;;;;;;;12.37;9.53;;;;;;;;;;5137341;27;20473;-76
2023/05/26 07:56:46;;;;;;;10.77;9.67;;;;;;;;;;5136034;27;20454;-79
2023/05/26 07:59:14;;;;;;;12.73;9.90;;;;;;;;;;5136743;27;20423;-76
2023/05/26 08:01:44;;;;;;;10.80;9.50;;;;;;;;;;5135661;27;20470;-76
2023/05/26 08:04:12;;;;;;;11.83;9.47;;;;;;;;;;5134258;27;20881;-76
2023/05/26 08:06:40;;;;;;;10.60;9.53;;;;;;;;;;5134701;27;20446;-78
2023/05/26 08:09:10;;;;;;;10.53;9.43;;;;;;;;;;5134161;27;20952;-76
2023/05/26 08:11:38;;;;;;;13.03;10.50;;;;;;;;;;5132309;27;20481;-77
2023/05/26 08:14:06;;;;;;;10.60;9.33;;;;;;;;;;5131591;27;20474;-75
2023/05/26 08:16:34;;;;;;;10.90;9.83;;;;;;;;;;5130795;27;21005;-77
2023/05/26 08:19:01;;;;;;;12.23;11.13;;;;;;;;;;5128052;27;20461;-77
2023/05/26 08:21:29;;;;;;;12.30;9.60;;;;;;;;;;5110835;28;20525;-76
2023/05/26 08:23:56;;;;;;;15.70;11.60;;;;;;;;;;5114458;28;20507;-77
2023/05/26 08:26:25;;;;;;;12.13;10.10;;;;;;;;;;5115046;28;20605;-76
2023/05/26 08:28:53;;;;;;;11.00;9.20;;;;;;;;;;5114678;27;20458;-76
2023/05/26 08:31:20;;;;;;;13.30;10.70;;;;;;;;;;5114287;28;20839;-78
2023/05/26 08:33:48;;;;;;;10.17;8.97;;;;;;;;;;5121230;27;20446;-77
2023/05/26 08:36:15;;;;;;;14.40;10.50;;;;;;;;;;5135258;27;20430;-77
2023/05/26 08:38:45;;;;;;;12.77;9.73;;;;;;;;;;5135485;27;20426;-78
2023/05/26 08:41:14;;;;;;;16.80;10.13;;;;;;;;;;5136318;27;20462;-76
2023/05/26 08:43:46;;;;;;;14.20;9.60;;;;;;;;;;5132674;27;20450;-77
2023/05/26 08:46:14;;;;;;;10.67;9.60;;;;;;;;;;5123204;27;20461;-77
2023/05/26 08:48:41;;;;;;;13.60;9.10;;;;;;;;;;5138318;27;20441;-78
2023/05/26 08:51:10;;;;;;;11.97;10.40;;;;;;;;;;5140393;27;20496;-78
2023/05/26 08:53:38;;;;;;;13.13;9.20;;;;;;;;;;5139531;27;20450;-79
2023/05/26 08:56:06;;;;;;;17.77;9.73;;;;;;;;;;5137237;27;20929;-77
2023/05/26 08:58:34;;;;;;;11.40;10.30;;;;;;;;;;5133834;27;20458;-78
2023/05/26 09:01:03;;;;;;;12.47;9.80;;;;;;;;;;5135563;27;20446;-78
2023/05/26 09:03:31;;;;;;;14.13;9.47;;;;;;;;;;5129439;27;20542;-76
2023/05/26 09:05:58;;;;;;;9.63;8.67;;;;;;;;;;5136240;27;20491;-79
2023/05/26 09:08:26;;;;;;;11.97;9.10;;;;;;;;;;5135250;27;20426;-75
2023/05/26 09:10:53;;;;;;;10.60;9.63;;;;;;;;;;5122689;27;20467;-77
2023/05/26 09:13:21;;;;;;;11.43;9.70;;;;;;;;;;5116147;28;20500;-78
2023/05/26 09:15:51;;;;;;;13.20;8.23;;;;;;;;;;5128256;27;20470;-77
2023/05/26 09:18:21;;;;;;;9.50;8.50;;;;;;;;;;5139189;27;20422;-77
2023/05/26 09:20:49;;;;;;;14.50;8.63;;;;;;;;;;5121956;27;20633;-77
2023/05/26 09:23:17;;;;;;;9.73;8.73;;;;;;;;;;5122112;28;20548;-78
2023/05/26 09:25:45;;;;;;;15.13;9.37;;;;;;;;;;5122393;28;21214;-75
2023/05/26 09:28:14;;;;;;;11.63;8.50;;;;;;;;;;5119270;28;20450;-77
2023/05/26 09:30:42;;;;;;;11.60;8.23;;;;;;;;;;5119816;28;20515;-76
2023/05/26 09:33:11;;;;;;;9.07;8.20;;;;;;;;;;5122225;27;20435;-77
2023/05/26 09:35:41;;;;;;;15.73;9.70;;;;;;;;;;5138862;27;20465;-80
2023/05/26 09:38:09;;;;;;;10.27;9.20;;;;;;;;;;5124944;27;20436;-78
2023/05/26 09:40:41;;;;;;;12.10;8.93;;;;;;;;;;5117906;28;20490;-77
2023/05/26 09:43:08;;;;;;;10.30;7.67;;;;;;;;;;5118845;28;20455;-76
2023/05/26 09:45:36;;;;;;;12.07;9.20;;;;;;;;;;5119412;28;20943;-78
2023/05/26 09:48:04;;;;;;;9.73;8.10;;;;;;;;;;5119588;28;20447;-78
2023/05/26 09:50:32;;;;;;;13.30;9.07;;;;;;;;;;5122324;28;20466;-79
2023/05/26 09:53:02;;;;;;;10.97;8.83;;;;;;;;;;5121098;28;20451;-78
2023/05/26 09:55:30;;;;;;;10.23;9.23;;;;;;;;;;5122634;28;21055;-79
2023/05/26 09:58:04;;;;;;;10.60;9.50;;;;;;;;;;5124913;28;20439;-76
2023/05/26 10:00:32;;;;;;;10.50;9.50;;;;;;;;;;5129665;28;20496;-78
2023/05/26 10:03:03;;;;;;;11.90;8.17;;;;;;;;;;5132313;28;20435;-75
2023/05/26 10:05:35;;;;;;;9.23;8.43;;;;;;;;;;5133003;28;20450;-77
2023/05/26 10:08:07;;;;;;;10.33;8.53;;;;;;;;;;5129471;28;20491;-75
2023/05/26 10:10:35;;;;;;;9.17;8.27;;;;;;;;;;5125139;28;20471;-75
2023/05/26 10:13:03;;;;;;;9.90;8.27;;;;;;;;;;5120990;28;20447;-76
2023/05/26 10:15:42;;;;;;;8.43;6.70;;;;;;;;;;5129429;28;20533;-75
2023/05/26 10:18:23;;;;;;;10.07;9.20;;;;;;;;;;5129401;28;20443;-78
2023/05/26 10:20:51;;;;;;;10.27;9.23;;;;;;;;;;5122431;28;20474;-75
2023/05/26 10:23:22;;;;;;;9.40;8.40;;;;;;;;;;5118844;28;20480;-75
2023/05/26 10:25:54;;;;;;;9.20;8.23;;;;;;;;;;5117017;28;20790;-79
2023/05/26 10:28:26;;;;;;;13.57;8.63;;;;;;;;;;5121085;28;20450;-76
2023/05/26 10:31:02;;;;;;;10.87;8.80;;;;;;;;;;5126688;28;20472;-78
2023/05/26 10:33:41;;;;;;;9.33;8.30;;;;;;;;;;5120612;28;20455;-76
2023/05/26 10:36:10;;;;;;;8.93;8.03;;;;;;;;;;5122560;28;20470;-76
2023/05/26 10:38:40;;;;;;;9.47;8.47;;;;;;;;;;5119385;28;20450;-75
2023/05/26 10:41:14;;;;;;;8.80;7.20;;;;;;;;;;5119599;28;20500;-79
2023/05/26 10:43:42;;;;;;;11.53;7.20;;;;;;;;;;5120755;28;20451;-77
2023/05/26 10:46:09;;;;;;;7.67;6.93;;;;;;;;;;5123559;28;20753;-77
2023/05/26 10:48:37;;;;;;;8.60;7.50;;;;;;;;;;5125012;28;20447;-76
2023/05/26 10:51:16;;;;;;;8.37;7.30;;;;;;;;;;5120202;28;20473;-76
2023/05/26 10:53:45;;;;;;;8.90;7.50;;;;;;;;;;5115484;28;20437;-76
2023/05/26 10:56:14;;;;;;;10.00;7.50;;;;;;;;;;5114499;28;20467;-76
2023/05/26 10:58:42;;;;;;;7.67;6.97;;;;;;;;;;5116075;28;20454;-77
2023/05/26 11:01:15;;;;;;;9.67;8.30;;;;;;;;;;5117209;28;21007;-76
2023/05/26 11:03:44;;;;;;;8.70;7.87;;;;;;;;;;5117772;28;20459;-78
2023/05/26 11:06:13;;;;;;;9.00;7.50;;;;;;;;;;5119617;28;20447;-77
2023/05/26 11:08:41;;;;;;;8.43;7.73;;;;;;;;;;5119272;28;20447;-76
2023/05/26 11:11:11;;;;;;;7.57;6.50;;;;;;;;;;5123026;28;20447;-77
2023/05/26 11:13:42;;;;;;;8.60;7.17;;;;;;;;;;5126086;28;20425;-77
2023/05/26 11:16:20;;;;;;;8.53;6.50;;;;;;;;;;5118569;28;20462;-77
2023/05/26 11:18:48;;;;;;;8.60;7.53;;;;;;;;;;5122743;27;20427;-77
2023/05/26 11:21:17;;;;;;;9.37;7.10;;;;;;;;;;5145946;27;20466;-80
2023/05/26 11:23:46;;;;;;;7.70;7.00;;;;;;;;;;5144103;27;20495;-77
2023/05/26 11:26:16;;;;;;;7.70;6.90;;;;;;;;;;5141784;27;20465;-76
2023/05/26 11:28:44;;;;;;;8.77;7.70;;;;;;;;;;5137704;27;20787;-74
2023/05/26 11:31:12;;;;;;;7.20;6.50;;;;;;;;;;5134085;27;20458;-74
2023/05/26 11:33:40;;;;;;;7.43;6.73;;;;;;;;;;5132466;27;20460;-75
2023/05/26 11:36:08;;;;;;;8.30;7.50;;;;;;;;;;5132273;27;20470;-74
2023/05/26 11:38:36;;;;;;;9.60;7.67;;;;;;;;;;5132070;27;20452;-77
2023/05/26 11:41:04;;;;;;;8.30;7.50;;;;;;;;;;5134525;27;20557;-75
2023/05/26 11:43:33;;;;;;;8.27;7.47;;;;;;;;;;5137169;27;20450;-76
2023/05/26 11:46:02;;;;;;;9.73;7.50;;;;;;;;;;5135316;27;20445;-77
2023/05/26 11:48:35;;;;;;;8.90;7.50;;;;;;;;;;5135569;27;20434;-76
2023/05/26 11:51:06;;;;;;;7.50;6.80;;;;;;;;;;5136282;27;20477;-75
2023/05/26 11:53:35;;;;;;;9.03;7.37;;;;;;;;;;5136461;27;20831;-76
2023/05/26 11:56:08;;;;;;;8.67;7.20;;;;;;;;;;5135764;27;20503;-77
2023/05/26 11:58:43;;;;;;;8.50;7.47;;;;;;;;;;5141316;27;20460;-77
2023/05/26 12:01:13;;;;;;;9.57;7.23;;;;;;;;;;5145101;27;20480;-78
2023/05/26 12:03:41;;;;;;;8.80;7.50;;;;;;;;;;5141953;27;20442;-76
2023/05/26 12:06:10;;;;;;;8.50;7.60;;;;;;;;;;5137997;27;20476;-77
2023/05/26 12:08:47;;;;;;;8.13;6.87;;;;;;;;;;5147115;27;20441;-77
2023/05/26 12:11:16;;;;;;;9.30;7.70;;;;;;;;;;5145501;27;20480;-76
2023/05/26 12:13:45;;;;;;;7.40;6.70;;;;;;;;;;5147328;27;20641;-75
2023/05/26 12:16:23;;;;;;;7.63;6.93;;;;;;;;;;5145106;27;20542;-77
2023/05/26 12:18:59;;;;;;;8.80;7.87;;;;;;;;;;5144989;27;20434;-77
2023/05/26 12:21:28;;;;;;;7.77;7.03;;;;;;;;;;5143911;27;20485;-75
2023/05/26 12:23:56;;;;;;;9.00;7.40;;;;;;;;;;5139498;27;20449;-77
2023/05/26 12:26:25;;;;;;;7.53;6.77;;;;;;;;;;5139628;27;20445;-76
2023/05/26 12:29:11;;;;;;;8.63;6.27;;;;;;;;;;5138251;27;20529;-77
2023/05/26 12:34:28;;;;;;;7.87;7.17;;;;;;;;;;5140618;27;20430;-75
2023/05/26 12:36:59;;;;;;;7.27;6.67;;;;;;;;;;5139648;27;20469;-75
2023/05/26 12:39:28;;;;;;;7.17;6.53;;;;;;;;;;5143115;27;20450;-76
2023/05/26 12:42:02;;;;;;;7.60;6.80;;;;;;;;;;5138009;27;20458;-75
2023/05/26 12:44:31;;;;;;;10.40;6.60;;;;;;;;;;5137615;27;20453;-78
2023/05/26 12:46:59;;;;;;;7.90;6.47;;;;;;;;;;5137553;27;20797;-75
2023/05/26 12:49:29;;;;;;;7.37;6.70;;;;;;;;;;5137411;27;20456;-77
2023/05/26 12:51:57;;;;;;;7.93;6.37;;;;;;;;;;5136870;27;20442;-77
2023/05/26 12:54:26;;;;;;;8.77;6.33;;;;;;;;;;5137383;27;20454;-78
2023/05/26 12:56:57;;;;;;;6.47;5.90;;;;;;;;;;5136993;27;20474;-77
2023/05/26 12:59:25;;;;;;;7.00;5.93;;;;;;;;;;5136582;27;20462;-76
2023/05/26 13:01:55;;;;;;;7.47;5.90;;;;;;;;;;5136325;27;20452;-78
2023/05/26 13:04:23;;;;;;;6.37;5.87;;;;;;;;;;5136858;27;20473;-79
2023/05/26 13:06:58;;;;;;;6.63;6.03;;;;;;;;;;5136750;27;20495;-76
2023/05/26 13:09:28;;;;;;;6.30;5.80;;;;;;;;;;5136378;27;20807;-78
2023/05/26 13:11:59;;;;;;;7.57;6.83;;;;;;;;;;5136937;27;20468;-77
2023/05/26 13:14:27;;;;;;;8.23;6.60;;;;;;;;;;5137017;27;20442;-78
2023/05/26 13:16:56;;;;;;;7.40;6.50;;;;;;;;;;5135315;27;20476;-78
2023/05/26 13:19:24;;;;;;;6.23;5.73;;;;;;;;;;5129920;27;20840;-76
2023/05/26 13:21:51;;;;;;;6.73;5.90;;;;;;;;;;5115063;28;20451;-75
2023/05/26 13:24:19;;;;;;;6.97;6.27;;;;;;;;;;5114653;28;20431;-77
2023/05/26 13:26:46;;;;;;;7.80;6.63;;;;;;;;;;5114322;28;20458;-76
2023/05/26 13:29:14;;;;;;;6.90;6.00;;;;;;;;;;5114060;28;20938;-75
2023/05/26 13:31:42;;;;;;;7.30;5.93;;;;;;;;;;5114080;28;20477;-76
2023/05/26 13:34:11;;;;;;;7.60;6.83;;;;;;;;;;5113754;28;20455;-77
2023/05/26 13:36:40;;;;;;;6.40;5.80;;;;;;;;;;5113501;28;20544;-76
2023/05/26 13:39:07;;;;;;;8.50;5.67;;;;;;;;;;5113821;28;20447;-77
2023/05/26 13:41:35;;;;;;;6.43;5.40;;;;;;;;;;5114337;28;20470;-76
2023/05/26 13:44:03;;;;;;;6.47;5.87;;;;;;;;;;5113506;28;20427;-76
2023/05/26 13:46:30;;;;;;;7.23;6.13;;;;;;;;;;5113521;28;20454;-75
2023/05/26 13:48:57;;;;;;;6.00;5.37;;;;;;;;;;5113724;28;20528;-78
2023/05/26 13:51:26;;;;;;;8.67;6.30;;;;;;;;;;5115176;28;20473;-75
2023/05/26 13:53:54;;;;;;;6.23;5.73;;;;;;;;;;5113258;28;20946;-77
2023/05/26 13:56:21;;;;;;;6.70;6.20;;;;;;;;;;5114377;28;20475;-76
2023/05/26 13:58:49;;;;;;;6.97;6.37;;;;;;;;;;5113685;28;20518;-77
2023/05/26 14:01:16;;;;;;;6.47;5.87;;;;;;;;;;5113318;28;21053;-77
2023/05/26 14:03:44;;;;;;;6.30;5.70;;;;;;;;;;5113681;28;20443;-77
2023/05/26 14:06:11;;;;;;;8.07;5.53;;;;;;;;;;5113413;28;20442;-77
2023/05/26 14:08:40;;;;;;;5.93;5.43;;;;;;;;;;5113053;28;20956;-76
2023/05/26 14:11:08;;;;;;;6.43;5.70;;;;;;;;;;5112740;28;20459;-78
2023/05/26 14:13:35;;;;;;;6.30;5.80;;;;;;;;;;5113385;27;20431;-76
2023/05/26 14:16:02;;;;;;;6.73;6.10;;;;;;;;;;5112705;27;20525;-76
2023/05/26 14:18:30;;;;;;;7.13;6.13;;;;;;;;;;5112727;28;20427;-78
2023/05/26 14:20:58;;;;;;;6.57;5.87;;;;;;;;;;5111849;28;20544;-77
2023/05/26 14:23:25;;;;;;;6.70;6.10;;;;;;;;;;5112213;28;20549;-77
2023/05/26 14:25:56;;;;;;;10.57;5.73;;;;;;;;;;5112918;28;20474;-76
2023/05/26 14:28:23;;;;;;;6.40;5.90;;;;;;;;;;5112400;28;20748;-76
2023/05/26 14:30:50;;;;;;;6.90;6.30;;;;;;;;;;5111923;28;20842;-77
2023/05/26 14:33:18;;;;;;;6.80;6.07;;;;;;;;;;5112298;27;20470;-76
2023/05/26 14:35:48;;;;;;;6.97;6.33;;;;;;;;;;5111833;27;20490;-75
2023/05/26 14:38:16;;;;;;;7.37;6.63;;;;;;;;;;5112294;28;20447;-77
2023/05/26 14:40:43;;;;;;;6.43;5.83;;;;;;;;;;5111983;28;20489;-75
2023/05/26 14:43:13;;;;;;;5.90;5.40;;;;;;;;;;5111678;28;20474;-76
2023/05/26 14:45:40;;;;;;;7.20;5.77;;;;;;;;;;5112649;28;20439;-76
2023/05/26 14:48:13;;;;;;;5.93;5.37;;;;;;;;;;5112801;27;20431;-78
2023/05/26 14:50:41;;;;;;;6.33;5.50;;;;;;;;;;5113138;28;20960;-77